Time;durP1;ratioP1;P1;durP2;ratioP2;P2;SDS_P1;SDS_P2;PMS_P1;PMS_P2;Temp;Humidity;BMP_temperature;BMP_pressure;BME280_temperature;BME280_humidity;BME280_pressure;Samples;Min_cycle;Max_cycle;Signal;HPM_P1;HPM_P2
2022/11/02 00:01:05;;;;;;;13.35;8.98;;;13.20;99.90;;;;;;5004018;28;20494;-73
2022/11/02 00:03:31;;;;;;;13.83;9.37;;;13.20;99.90;;;;;;5003552;28;20030;-73
2022/11/02 00:05:56;;;;;;;14.13;9.85;;;13.20;99.90;;;;;;5002219;28;20359;-73
2022/11/02 00:08:22;;;;;;;14.10;9.35;;;13.10;99.90;;;;;;5002484;28;20034;-73
2022/11/02 00:10:47;;;;;;;13.82;10.25;;;13.20;99.90;;;;;;5001435;28;20556;-73
2022/11/02 00:13:13;;;;;;;12.30;9.52;;;13.10;99.90;;;;;;5005555;28;20034;-73
2022/11/02 00:15:39;;;;;;;12.43;8.98;;;13.10;99.90;;;;;;5004687;28;20034;-72
2022/11/02 00:18:09;;;;;;;12.00;9.55;;;13.10;99.90;;;;;;5007322;28;20030;-73
2022/11/02 00:20:37;;;;;;;12.32;9.30;;;13.10;99.90;;;;;;5004375;28;20076;-73
2022/11/02 00:23:06;;;;;;;10.88;9.38;;;13.00;99.90;;;;;;5003170;28;20444;-73
2022/11/02 00:25:32;;;;;;;10.65;8.23;;;13.10;99.90;;;;;;5005758;28;20049;-73
2022/11/02 00:27:58;;;;;;;11.18;8.52;;;13.00;99.90;;;;;;5004464;28;20045;-74
2022/11/02 00:30:24;;;;;;;13.32;8.95;;;13.00;99.90;;;;;;5004780;28;20106;-73
2022/11/02 00:32:50;;;;;;;10.20;8.68;;;13.00;99.90;;;;;;5003357;28;20014;-73
2022/11/02 00:35:15;;;;;;;13.02;8.95;;;13.00;99.90;;;;;;5002391;28;20485;-73
2022/11/02 00:37:41;;;;;;;10.43;8.05;;;13.00;99.90;;;;;;5005593;28;20026;-73
2022/11/02 00:40:09;;;;;;;13.05;8.73;;;13.00;99.90;;;;;;5005543;28;20032;-73
2022/11/02 00:42:34;;;;;;;11.10;7.53;;;13.00;99.90;;;;;;5016103;28;20030;-74
2022/11/02 00:45:00;;;;;;;8.82;7.03;;;12.90;99.90;;;;;;5011435;28;20034;-74
2022/11/02 00:47:27;;;;;;;9.75;7.63;;;12.90;99.90;;;;;;5006477;28;20022;-74
2022/11/02 00:49:54;;;;;;;11.25;7.25;;;12.90;99.90;;;;;;5006953;28;20072;-73
2022/11/02 00:52:19;;;;;;;10.68;7.97;;;12.90;99.90;;;;;;5004874;28;20032;-73
2022/11/02 00:54:45;;;;;;;10.65;7.38;;;12.90;99.90;;;;;;5006231;28;20038;-74
2022/11/02 00:57:11;;;;;;;10.38;6.93;;;12.90;99.90;;;;;;5007085;28;20036;-74
2022/11/02 00:59:36;;;;;;;10.23;7.28;;;12.90;99.90;;;;;;5005539;28;20025;-73
2022/11/02 01:02:02;;;;;;;12.18;7.20;;;12.90;99.90;;;;;;5004650;28;20028;-74
2022/11/02 01:04:28;;;;;;;10.00;6.40;;;12.90;99.90;;;;;;5004096;28;20906;-74
2022/11/02 01:06:54;;;;;;;7.32;5.63;;;12.90;99.90;;;;;;5004476;28;20026;-73
2022/11/02 01:09:20;;;;;;;9.80;5.55;;;12.90;99.90;;;;;;5004862;28;20038;-73
2022/11/02 01:11:46;;;;;;;9.63;5.60;;;12.90;99.90;;;;;;5005964;28;20029;-74
2022/11/02 01:14:11;;;;;;;9.43;6.13;;;12.90;99.90;;;;;;5007127;28;20370;-73
2022/11/02 01:16:39;;;;;;;10.85;5.80;;;12.80;99.90;;;;;;5002870;28;20481;-74
2022/11/02 01:19:06;;;;;;;7.53;5.50;;;12.80;99.90;;;;;;5002841;28;20033;-74
2022/11/02 01:21:32;;;;;;;23.08;6.22;;;12.80;99.90;;;;;;5002560;28;20102;-72
2022/11/02 01:23:57;;;;;;;8.40;5.07;;;12.80;99.90;;;;;;5001815;28;20462;-73
2022/11/02 01:26:23;;;;;;;8.85;5.43;;;12.70;99.90;;;;;;5005940;28;20033;-73
2022/11/02 01:28:48;;;;;;;9.15;5.50;;;12.70;99.90;;;;;;5004163;28;20041;-74
2022/11/02 01:31:14;;;;;;;8.75;5.50;;;12.70;99.90;;;;;;5005045;28;20018;-73
2022/11/02 01:33:44;;;;;;;7.45;5.20;;;12.70;99.90;;;;;;5000651;28;20030;-73
2022/11/02 01:36:11;;;;;;;6.85;5.03;;;12.60;99.90;;;;;;5003533;28;20038;-73
2022/11/02 01:38:37;;;;;;;7.28;4.60;;;12.70;99.90;;;;;;5001782;28;20022;-74
2022/11/02 01:41:02;;;;;;;7.43;4.72;;;12.70;99.90;;;;;;5004897;28;20033;-74
2022/11/02 01:43:34;;;;;;;7.18;5.00;;;12.70;99.90;;;;;;5004789;28;20038;-73
2022/11/02 01:46:05;;;;;;;9.07;4.03;;;12.70;99.90;;;;;;5003374;28;20026;-73
2022/11/02 01:48:35;;;;;;;5.68;4.05;;;12.60;99.90;;;;;;5004101;28;20465;-73
2022/11/02 01:51:05;;;;;;;7.25;4.50;;;12.60;99.90;;;;;;5002306;28;20022;-74
2022/11/02 01:53:33;;;;;;;7.05;4.57;;;12.60;99.90;;;;;;5003239;28;20026;-73
2022/11/02 01:56:00;;;;;;;6.47;4.40;;;12.60;99.90;;;;;;5004284;28;20033;-73
2022/11/02 01:58:26;;;;;;;9.07;4.88;;;12.60;99.90;;;;;;5004937;28;21906;-73
2022/11/02 02:00:51;;;;;;;7.18;4.85;;;12.50;99.90;;;;;;5003852;28;20468;-74
2022/11/02 02:03:20;;;;;;;6.88;5.00;;;12.50;99.90;;;;;;5003379;28;20030;-73
2022/11/02 02:05:59;;;;;;;7.10;4.57;;;12.50;99.90;;;;;;5002855;28;20037;-73
2022/11/02 02:08:26;;;;;;;7.72;4.47;;;12.40;99.90;;;;;;5004803;28;20405;-73
2022/11/02 02:10:55;;;;;;;7.57;4.28;;;12.40;99.90;;;;;;5008368;28;20125;-74
2022/11/02 02:13:21;;;;;;;6.25;4.53;;;12.30;99.90;;;;;;5003268;28;20034;-73
2022/11/02 02:16:10;;;;;;;7.35;4.10;;;12.30;99.90;;;;;;5003379;28;20025;-74
2022/11/02 02:18:45;;;;;;;6.80;4.35;;;12.30;99.90;;;;;;5001002;28;20117;-74
2022/11/02 02:21:22;;;;;;;7.85;4.35;;;12.20;99.90;;;;;;5002986;28;20095;-74
2022/11/02 02:24:15;;;;;;;7.35;4.43;;;12.20;99.90;;;;;;5001641;28;20041;-74
2022/11/02 02:26:56;;;;;;;7.35;4.38;;;12.20;99.90;;;;;;5000502;28;20022;-73
2022/11/02 02:29:53;;;;;;;5.38;4.32;;;12.10;99.90;;;;;;5001786;28;20037;-74
2022/11/02 02:32:32;;;;;;;7.78;4.57;;;12.10;99.90;;;;;;5004773;28;20029;-74
2022/11/02 02:35:08;;;;;;;5.88;4.13;;;12.10;99.90;;;;;;5002243;28;20026;-75
2022/11/02 02:37:40;;;;;;;6.28;4.55;;;12.10;99.90;;;;;;5003423;28;20033;-74
2022/11/02 02:40:17;;;;;;;6.70;4.53;;;12.10;99.90;;;;;;5001692;28;20481;-74
2022/11/02 02:43:05;;;;;;;7.05;4.35;;;12.10;99.90;;;;;;5004955;28;20046;-74
2022/11/02 02:45:39;;;;;;;8.00;4.60;;;12.00;99.90;;;;;;5003837;28;20046;-73
2022/11/02 02:48:18;;;;;;;8.30;5.03;;;12.00;99.90;;;;;;5001273;28;20065;-73
2022/11/02 02:51:00;;;;;;;9.32;5.22;;;12.00;99.90;;;;;;5002461;28;20038;-73
2022/11/02 02:53:46;;;;;;;8.00;4.68;;;11.90;99.90;;;;;;5002650;28;20192;-73
2022/11/02 02:56:14;;;;;;;7.43;4.10;;;11.90;99.90;;;;;;5000663;28;20041;-73
2022/11/02 02:58:59;;;;;;;6.88;4.35;;;11.90;99.90;;;;;;5002443;28;20026;-73
2022/11/02 03:01:26;;;;;;;9.23;4.15;;;11.90;99.90;;;;;;5000706;28;20041;-73
2022/11/02 03:03:52;;;;;;;8.32;3.97;;;11.90;99.90;;;;;;4999986;28;20030;-73
2022/11/02 03:06:32;;;;;;;7.70;4.78;;;11.80;99.90;;;;;;5004307;28;20030;-73
2022/11/02 03:09:28;;;;;;;7.75;4.00;;;11.80;99.90;;;;;;5009922;28;20041;-72
2022/11/02 03:12:33;;;;;;;7.45;4.10;;;11.80;99.90;;;;;;5004369;28;20029;-72
2022/11/02 03:15:33;;;;;;;8.05;3.78;;;11.80;99.90;;;;;;5003493;28;20042;-73
2022/11/02 03:17:58;;;;;;;9.30;4.85;;;11.80;99.90;;;;;;5003369;28;20085;-73
2022/11/02 03:20:53;;;;;;;7.20;3.80;;;11.80;99.90;;;;;;5002826;28;20460;-73
2022/11/02 03:23:46;;;;;;;7.07;3.83;;;11.70;99.90;;;;;;5003177;28;20029;-73
2022/11/02 03:26:45;;;;;;;6.00;3.70;;;11.70;99.90;;;;;;5003127;28;20033;-73
2022/11/02 03:29:14;;;;;;;5.75;3.78;;;11.70;99.90;;;;;;5003968;28;20057;-73
2022/11/02 03:31:57;;;;;;;6.43;3.78;;;11.70;99.90;;;;;;5003819;28;20020;-73
2022/11/02 03:34:37;;;;;;;9.68;4.50;;;11.70;99.90;;;;;;5003478;28;20034;-73
2022/11/02 03:37:24;;;;;;;6.85;4.22;;;11.70;99.90;;;;;;5003546;28;20029;-74
2022/11/02 03:39:53;;;;;;;6.93;4.10;;;11.60;99.90;;;;;;5001320;28;20520;-74
2022/11/02 03:42:25;;;;;;;5.70;3.58;;;11.60;99.90;;;;;;5002562;28;20413;-74
2022/11/02 03:44:57;;;;;;;6.65;4.18;;;11.60;99.90;;;;;;5003248;28;20109;-73
2022/11/02 03:47:25;;;;;;;8.55;4.50;;;11.60;99.90;;;;;;5000441;28;20467;-73
2022/11/02 03:49:54;;;;;;;5.50;3.40;;;11.60;99.90;;;;;;5002647;28;20319;-73
2022/11/02 03:52:23;;;;;;;6.68;3.97;;;11.60;99.90;;;;;;5004890;28;20058;-73
2022/11/02 03:55:07;;;;;;;7.45;4.18;;;11.60;99.90;;;;;;5018121;28;20054;-73
2022/11/02 03:57:40;;;;;;;7.57;3.60;;;11.50;99.90;;;;;;5003571;28;20096;-73
2022/11/02 04:00:11;;;;;;;8.50;3.58;;;11.50;99.90;;;;;;5004616;28;20474;-73
2022/11/02 04:02:38;;;;;;;5.55;3.83;;;11.50;99.90;;;;;;5003039;28;20030;-74
2022/11/02 04:05:04;;;;;;;7.30;4.00;;;11.50;99.90;;;;;;5005139;28;20022;-73
2022/11/02 04:08:19;;;;;;;6.45;3.38;;;11.50;99.90;;;;;;5001396;28;20059;-74
2022/11/02 04:10:19;;;;;;;5.68;3.83;;;11.50;99.90;;;;;;5004098;28;20402;-74
2022/11/02 04:15:29;;;;;;;5.20;3.08;;;11.50;99.90;;;;;;5007682;28;20390;-74
2022/11/02 04:20:40;;;;;;;7.50;4.50;;;11.50;99.90;;;;;;5004228;28;20044;-74
2022/11/02 04:25:57;;;;;;;6.03;3.42;;;11.50;99.90;;;;;;5011301;28;20060;-74
2022/11/02 04:28:23;;;;;;;7.80;4.00;;;11.40;99.90;;;;;;5002214;28;20041;-73
2022/11/02 04:30:50;;;;;;;5.80;3.08;;;11.50;99.90;;;;;;5004806;28;20030;-73
2022/11/02 04:33:34;;;;;;;8.30;2.90;;;11.40;99.90;;;;;;5002575;28;20080;-74
2022/11/02 04:36:05;;;;;;;6.88;3.78;;;11.40;99.90;;;;;;5007723;28;20044;-73
2022/11/02 04:38:40;;;;;;;6.50;3.42;;;11.40;99.90;;;;;;5005085;28;20026;-73
2022/11/02 04:43:59;;;;;;;7.97;3.10;;;11.40;99.90;;;;;;5002903;28;20052;-73
2022/11/02 04:46:27;;;;;;;6.63;2.92;;;11.50;99.90;;;;;;5003522;28;21651;-73
2022/11/02 04:48:53;;;;;;;4.82;3.00;;;11.50;99.90;;;;;;5004269;28;20492;-73
2022/11/02 04:51:21;;;;;;;5.18;3.00;;;11.40;99.90;;;;;;5004432;28;20030;-74
2022/11/02 04:53:51;;;;;;;7.75;3.28;;;11.40;99.90;;;;;;5002427;28;20036;-74
2022/11/02 04:56:16;;;;;;;7.57;3.30;;;11.40;99.90;;;;;;5003162;28;20517;-74
2022/11/02 04:58:42;;;;;;;5.00;2.63;;;11.40;99.90;;;;;;5003636;28;20048;-74
2022/11/02 05:01:12;;;;;;;7.28;2.95;;;11.40;99.90;;;;;;5003607;28;20031;-74
2022/11/02 05:03:38;;;;;;;6.80;2.95;;;11.40;99.90;;;;;;5003422;28;20050;-74
2022/11/02 05:06:04;;;;;;;4.97;3.03;;;11.40;99.90;;;;;;5006098;28;20034;-73
2022/11/02 05:08:30;;;;;;;6.88;2.80;;;11.40;99.90;;;;;;5003346;28;20041;-74
2022/11/02 05:10:57;;;;;;;5.28;3.17;;;11.40;99.90;;;;;;5002566;28;20052;-73
2022/11/02 05:13:23;;;;;;;8.80;3.13;;;11.40;99.90;;;;;;5007845;28;20036;-73
2022/11/02 05:15:49;;;;;;;7.03;3.20;;;11.40;99.90;;;;;;5002828;28;20054;-74
2022/11/02 05:18:15;;;;;;;5.25;2.65;;;11.40;99.90;;;;;;5002494;28;20088;-74
2022/11/02 05:20:41;;;;;;;5.82;3.03;;;11.40;99.90;;;;;;5002259;28;20409;-73
2022/11/02 05:23:07;;;;;;;10.15;3.13;;;11.40;99.90;;;;;;5005120;28;20032;-72
2022/11/02 05:25:33;;;;;;;6.05;2.72;;;11.40;99.90;;;;;;5003052;28;20033;-73
2022/11/02 05:28:00;;;;;;;4.03;2.60;;;11.40;99.90;;;;;;5003867;28;20072;-73
2022/11/02 05:30:25;;;;;;;5.68;2.97;;;11.30;99.90;;;;;;5001633;28;20075;-73
2022/11/02 05:32:55;;;;;;;5.35;2.83;;;11.30;99.90;;;;;;5004951;28;20041;-74
2022/11/02 05:35:21;;;;;;;8.63;3.03;;;11.30;99.90;;;;;;5008352;28;20029;-72
2022/11/02 05:37:46;;;;;;;6.30;3.08;;;11.30;99.90;;;;;;5005959;28;20041;-69
2022/11/02 05:40:12;;;;;;;7.65;3.33;;;11.30;99.90;;;;;;5004005;28;20371;-76
2022/11/02 05:42:38;;;;;;;8.07;2.90;;;11.30;99.90;;;;;;5006385;28;20038;-74
2022/11/02 05:45:04;;;;;;;8.45;3.47;;;11.30;99.90;;;;;;5001620;28;20026;-76
2022/11/02 05:47:29;;;;;;;6.38;3.03;;;11.30;99.90;;;;;;5003468;28;20726;-71
2022/11/02 05:49:55;;;;;;;7.97;3.03;;;11.20;99.90;;;;;;5003673;28;20038;-70
2022/11/02 05:52:20;;;;;;;7.20;3.20;;;11.20;99.90;;;;;;5002837;28;20026;-71
2022/11/02 05:54:46;;;;;;;6.80;3.10;;;11.20;99.90;;;;;;5002855;28;20432;-72
2022/11/02 05:57:15;;;;;;;6.38;3.10;;;11.20;99.90;;;;;;5004502;28;20033;-73
2022/11/02 05:59:42;;;;;;;5.20;2.88;;;11.20;99.90;;;;;;5001394;28;20029;-72
2022/11/02 06:02:07;;;;;;;5.38;2.80;;;11.20;99.90;;;;;;5004027;28;20030;-72
2022/11/02 06:04:33;;;;;;;7.43;3.17;;;11.30;99.90;;;;;;5002866;28;20104;-73
2022/11/02 06:06:58;;;;;;;10.65;3.40;;;11.20;99.90;;;;;;5002963;28;20095;-72
2022/11/02 06:09:24;;;;;;;5.50;2.40;;;11.20;99.90;;;;;;5000214;28;20034;-72
2022/11/02 06:11:50;;;;;;;6.25;2.92;;;11.20;99.90;;;;;;5003343;28;20116;-72
2022/11/02 06:14:15;;;;;;;6.35;2.40;;;11.20;99.90;;;;;;5005635;28;20895;-73
2022/11/02 06:16:41;;;;;;;5.88;2.65;;;11.20;99.90;;;;;;5002714;28;20033;-72
2022/11/02 06:19:06;;;;;;;5.30;2.42;;;11.20;99.90;;;;;;5001504;28;20029;-73
2022/11/02 06:21:32;;;;;;;7.75;3.08;;;11.20;99.90;;;;;;5000677;28;20027;-71
2022/11/02 06:23:58;;;;;;;6.45;2.45;;;11.20;99.90;;;;;;5002320;28;20645;-71
2022/11/02 06:26:24;;;;;;;7.82;3.83;;;11.20;99.90;;;;;;5000028;28;20022;-71
2022/11/02 06:28:49;;;;;;;6.15;3.10;;;11.20;99.90;;;;;;5002156;28;20444;-71
2022/11/02 06:31:16;;;;;;;7.03;3.03;;;11.20;99.90;;;;;;5001050;28;20119;-70
2022/11/02 06:33:43;;;;;;;5.15;2.45;;;11.20;99.90;;;;;;5000922;28;20040;-70
2022/11/02 06:36:09;;;;;;;6.47;2.55;;;11.20;99.90;;;;;;5002897;28;20026;-68
2022/11/02 06:38:34;;;;;;;6.95;2.35;;;11.20;99.90;;;;;;5001872;28;20032;-71
2022/11/02 06:41:03;;;;;;;10.05;3.42;;;11.20;99.90;;;;;;5003062;28;20028;-71
2022/11/02 06:43:28;;;;;;;4.63;2.75;;;11.20;99.90;;;;;;4999848;28;20054;-72
2022/11/02 06:45:56;;;;;;;5.80;2.58;;;11.20;99.90;;;;;;5002717;28;20030;-73
2022/11/02 06:48:23;;;;;;;8.43;2.70;;;11.20;99.90;;;;;;5001574;28;20033;-71
2022/11/02 06:50:49;;;;;;;7.50;3.20;;;11.30;99.90;;;;;;4999572;28;20043;-72
2022/11/02 06:53:17;;;;;;;6.78;2.97;;;11.20;99.90;;;;;;5002195;28;20583;-71
2022/11/02 06:55:42;;;;;;;6.53;2.90;;;11.30;99.90;;;;;;5002485;28;20022;-71
2022/11/02 06:58:08;;;;;;;6.05;2.60;;;11.20;99.90;;;;;;5000627;28;20588;-71
2022/11/02 07:00:34;;;;;;;6.28;2.85;;;11.30;99.90;;;;;;5002051;28;20134;-70
2022/11/02 07:03:05;;;;;;;6.65;3.55;;;11.30;99.90;;;;;;5002858;28;20030;-71
2022/11/02 07:05:33;;;;;;;8.10;4.03;;;11.30;99.90;;;;;;4999615;28;20028;-70
2022/11/02 07:07:59;;;;;;;4.68;2.25;;;11.30;99.90;;;;;;5001632;28;20037;-70
2022/11/02 07:10:26;;;;;;;6.05;3.38;;;11.30;99.90;;;;;;5004365;28;20053;-71
2022/11/02 07:12:56;;;;;;;6.85;2.58;;;11.40;99.90;;;;;;5000306;28;20076;-71
2022/11/02 07:15:24;;;;;;;7.93;3.33;;;11.40;99.90;;;;;;5000538;28;20030;-73
2022/11/02 07:17:50;;;;;;;9.77;3.10;;;11.40;99.90;;;;;;5003384;28;20042;-73
2022/11/02 07:20:18;;;;;;;9.57;2.90;;;11.40;99.90;;;;;;5000166;28;20025;-73
2022/11/02 07:23:13;;;;;;;5.45;3.13;;;11.40;99.90;;;;;;5000720;28;20112;-75
2022/11/02 07:25:39;;;;;;;4.35;2.47;;;11.50;99.90;;;;;;4997024;28;20050;-74
2022/11/02 07:28:08;;;;;;;7.22;3.38;;;11.50;99.90;;;;;;5001380;28;20084;-73
2022/11/02 07:30:34;;;;;;;8.93;3.05;;;11.60;99.90;;;;;;5002019;28;20029;-73
2022/11/02 07:33:00;;;;;;;8.50;3.53;;;11.50;99.90;;;;;;5003522;28;20034;-74
2022/11/02 07:35:26;;;;;;;7.03;2.85;;;11.60;99.90;;;;;;5004049;28;20053;-74
2022/11/02 07:38:05;;;;;;;8.55;3.70;;;11.60;99.90;;;;;;5021960;28;20785;-70
2022/11/02 07:40:34;;;;;;;7.80;3.15;;;11.70;99.90;;;;;;5003814;28;20042;-77
2022/11/02 07:43:01;;;;;;;7.10;3.30;;;11.70;99.90;;;;;;5008870;28;20060;-73
2022/11/02 07:45:28;;;;;;;4.45;2.50;;;11.70;99.90;;;;;;5004173;28;20469;-78
2022/11/02 07:47:53;;;;;;;7.55;3.05;;;11.80;99.90;;;;;;5004842;28;20516;-74
2022/11/02 07:50:21;;;;;;;7.45;3.20;;;11.90;99.90;;;;;;5007127;28;20030;-76
2022/11/02 07:52:55;;;;;;;9.43;3.33;;;12.00;99.90;;;;;;5005872;28;20049;-74
2022/11/02 07:55:26;;;;;;;7.55;3.30;;;12.00;99.90;;;;;;5011283;28;20033;-73
2022/11/02 07:57:55;;;;;;;5.10;2.90;;;12.10;99.90;;;;;;5016030;28;20030;-74
2022/11/02 08:00:21;;;;;;;7.22;3.17;;;12.30;99.90;;;;;;5010014;28;20040;-72
2022/11/02 08:02:47;;;;;;;6.30;3.15;;;12.40;99.90;;;;;;5007708;28;20030;-74
2022/11/02 08:05:14;;;;;;;7.22;3.00;;;12.50;99.90;;;;;;5007010;28;20076;-75
2022/11/02 08:07:40;;;;;;;4.72;2.47;;;12.60;99.90;;;;;;5008485;28;20456;-74
2022/11/02 08:10:06;;;;;;;10.05;3.17;;;12.80;99.90;;;;;;5007007;28;20042;-74
2022/11/02 08:12:31;;;;;;;5.10;2.67;;;12.80;99.90;;;;;;5009432;28;20080;-74
2022/11/02 08:14:57;;;;;;;10.57;2.83;;;12.90;99.90;;;;;;5006348;28;20022;-74
2022/11/02 08:17:23;;;;;;;9.50;2.67;;;13.00;99.90;;;;;;5004768;28;20037;-74
2022/11/02 08:19:48;;;;;;;4.45;2.35;;;13.20;99.90;;;;;;5004524;28;20034;-74
2022/11/02 08:22:14;;;;;;;6.35;2.80;;;13.20;99.90;;;;;;5003298;28;20120;-74
2022/11/02 08:24:41;;;;;;;7.88;2.13;;;13.30;99.90;;;;;;5003531;28;20057;-73
2022/11/02 08:27:08;;;;;;;5.68;2.20;;;13.40;99.90;;;;;;5002940;28;21590;-75
2022/11/02 08:29:35;;;;;;;7.82;2.63;;;13.50;99.90;;;;;;5002345;28;21812;-74
2022/11/02 08:32:01;;;;;;;6.13;2.60;;;13.60;99.90;;;;;;5002437;28;20377;-75
2022/11/02 08:34:27;;;;;;;11.57;2.70;;;13.70;99.90;;;;;;5002833;28;20034;-73
2022/11/02 08:36:53;;;;;;;8.05;2.80;;;13.80;99.90;;;;;;5001816;28;20045;-74
2022/11/02 08:39:18;;;;;;;8.10;3.00;;;13.80;99.90;;;;;;5002882;28;20113;-74
2022/11/02 08:41:44;;;;;;;4.28;2.42;;;13.90;99.90;;;;;;5001963;28;20070;-75
2022/11/02 08:44:09;;;;;;;9.25;2.97;;;14.00;99.90;;;;;;5000876;28;20058;-74
2022/11/02 08:46:37;;;;;;;7.57;2.25;;;14.10;99.90;;;;;;5001379;28;20055;-74
2022/11/02 08:49:03;;;;;;;9.30;2.40;;;14.10;99.90;;;;;;5004411;28;20042;-75
2022/11/02 08:51:29;;;;;;;7.45;2.50;;;14.10;99.90;;;;;;5002217;28;20107;-74
2022/11/02 08:53:54;;;;;;;8.85;3.08;;;14.20;99.90;;;;;;5002242;28;20060;-75
2022/11/02 08:56:20;;;;;;;9.60;2.92;;;14.30;99.90;;;;;;5001532;28;20026;-74
2022/11/02 08:58:46;;;;;;;8.93;2.80;;;14.30;99.90;;;;;;5003434;28;20495;-74
2022/11/02 09:01:11;;;;;;;8.07;2.85;;;14.30;99.90;;;;;;5001870;28;20022;-75
2022/11/02 09:03:37;;;;;;;7.63;2.92;;;14.30;99.90;;;;;;5002748;28;20049;-74
2022/11/02 09:06:03;;;;;;;11.07;3.50;;;14.40;99.90;;;;;;5003059;28;20033;-74
2022/11/02 09:08:29;;;;;;;9.80;2.55;;;14.30;99.90;;;;;;5003017;28;20033;-76
2022/11/02 09:10:59;;;;;;;9.43;4.20;;;14.30;99.90;;;;;;5004632;28;20026;-75
2022/11/02 09:13:24;;;;;;;8.55;3.17;;;14.30;99.90;;;;;;5003860;28;20584;-75
2022/11/02 09:15:53;;;;;;;10.45;3.60;;;14.30;99.90;;;;;;5004761;28;20048;-76
2022/11/02 09:18:19;;;;;;;8.45;2.70;;;14.20;99.90;;;;;;5004987;28;20066;-75
2022/11/02 09:20:46;;;;;;;9.55;3.20;;;14.30;99.90;;;;;;5002530;28;20080;-76
2022/11/02 09:23:12;;;;;;;8.02;3.00;;;14.30;99.90;;;;;;5012655;28;20041;-74
2022/11/02 09:25:37;;;;;;;9.70;2.60;;;14.30;99.90;;;;;;5004296;28;20030;-74
2022/11/02 09:28:03;;;;;;;7.93;3.05;;;14.30;99.90;;;;;;5005280;28;20108;-74
2022/11/02 09:30:29;;;;;;;7.53;3.28;;;14.30;99.90;;;;;;5002637;28;20507;-72
2022/11/02 09:33:03;;;;;;;7.75;3.15;;;14.30;99.90;;;;;;5003899;28;20018;-73
2022/11/02 09:35:32;;;;;;;6.60;2.50;;;14.30;99.90;;;;;;5003031;28;20121;-72
2022/11/02 09:37:57;;;;;;;9.65;3.15;;;14.30;99.90;;;;;;5002870;28;20493;-72
2022/11/02 09:40:26;;;;;;;7.55;2.70;;;14.40;99.90;;;;;;5002672;28;20041;-72
2022/11/02 09:43:03;;;;;;;7.57;2.95;;;14.40;99.90;;;;;;5002382;28;20053;-73
2022/11/02 09:45:33;;;;;;;9.07;2.83;;;14.40;99.90;;;;;;5000739;28;20034;-73
2022/11/02 09:48:06;;;;;;;6.70;2.40;;;14.50;99.90;;;;;;5002616;28;21779;-71
2022/11/02 09:51:04;;;;;;;7.82;2.40;;;14.50;99.90;;;;;;5002761;28;20045;-71
2022/11/02 09:54:18;;;;;;;6.63;2.53;;;14.50;99.90;;;;;;5002363;28;20054;-72
2022/11/02 09:56:44;;;;;;;10.60;3.13;;;14.60;99.90;;;;;;5001172;28;20030;-71
2022/11/02 09:59:16;;;;;;;8.13;3.03;;;14.60;99.90;;;;;;5001809;28;20550;-71
2022/11/02 10:02:03;;;;;;;4.65;2.42;;;14.60;99.80;;;;;;5002607;28;20420;-72
2022/11/02 10:04:47;;;;;;;9.15;2.75;;;14.70;99.70;;;;;;5002558;28;20771;-73
2022/11/02 10:07:31;;;;;;;9.15;2.70;;;14.70;99.70;;;;;;5002239;28;20279;-73
2022/11/02 10:10:11;;;;;;;6.03;2.70;;;14.70;99.60;;;;;;5000950;28;20497;-73
2022/11/02 10:12:59;;;;;;;9.00;2.88;;;14.80;99.60;;;;;;5005234;28;20273;-71
2022/11/02 10:15:39;;;;;;;7.32;2.78;;;14.80;99.50;;;;;;5003381;28;20489;-71
2022/11/02 10:18:12;;;;;;;5.38;2.83;;;14.90;99.40;;;;;;5019455;28;20045;-71
2022/11/02 10:20:47;;;;;;;5.13;1.98;;;14.90;99.20;;;;;;5030149;28;20084;-73
2022/11/02 10:23:25;;;;;;;;;;;15.00;99.20;;;;;;5005007;28;20037;-73
2022/11/02 10:25:51;;;;;;;4.80;2.05;;;15.00;99.50;;;;;;5004311;28;19909;-72
2022/11/02 10:28:25;;;;;;;7.55;2.67;;;15.00;99.10;;;;;;5004408;28;20033;-74
2022/11/02 10:30:52;;;;;;;6.30;2.22;;;15.10;98.90;;;;;;5004381;28;20030;-74
2022/11/02 10:33:25;;;;;;;5.95;2.40;;;15.10;98.70;;;;;;5003515;28;20030;-74
2022/11/02 10:36:18;;;;;;;9.13;1.90;;;15.20;98.50;;;;;;5004492;28;20037;-73
2022/11/02 10:39:01;;;;;;;11.73;2.53;;;15.20;98.40;;;;;;5002509;28;20054;-73
2022/11/02 10:41:56;;;;;;;5.60;2.75;;;15.30;98.30;;;;;;5002709;28;20038;-73
2022/11/02 10:44:22;;;;;;;5.43;2.53;;;15.30;98.20;;;;;;5000845;28;20046;-73
2022/11/02 10:47:13;;;;;;;8.50;3.25;;;15.30;98.20;;;;;;5001383;28;20022;-73
2022/11/02 10:50:06;;;;;;;8.70;2.53;;;15.40;98.10;;;;;;5003502;28;20041;-73
2022/11/02 10:52:39;;;;;;;8.00;2.40;;;15.40;98.00;;;;;;5000692;28;20104;-75
2022/11/02 10:55:14;;;;;;;6.47;2.63;;;15.40;97.80;;;;;;5005738;28;20044;-74
2022/11/02 10:57:40;;;;;;;5.57;2.25;;;15.50;97.70;;;;;;5003589;28;20069;-74
2022/11/02 11:00:32;;;;;;;5.28;2.67;;;15.50;97.60;;;;;;5003207;28;20152;-74
2022/11/02 11:03:17;;;;;;;4.18;1.98;;;15.60;97.50;;;;;;5002009;28;20039;-74
2022/11/02 11:05:49;;;;;;;6.65;2.13;;;15.60;97.30;;;;;;5001618;28;20029;-73
2022/11/02 11:08:36;;;;;;;9.82;2.10;;;15.60;97.30;;;;;;5004366;28;20084;-74
2022/11/02 11:11:13;;;;;;;6.78;2.97;;;15.60;97.20;;;;;;5008911;28;20108;-73
2022/11/02 11:13:41;;;;;;;9.90;2.38;;;15.70;97.00;;;;;;5006542;28;20038;-74
2022/11/02 11:16:09;;;;;;;5.35;1.90;;;15.70;96.90;;;;;;5005719;28;20030;-77
2022/11/02 11:18:36;;;;;;;8.20;3.28;;;15.80;96.70;;;;;;5010157;28;20501;-72
2022/11/02 11:21:03;;;;;;;7.93;2.42;;;15.80;96.60;;;;;;5011867;28;20087;-74
2022/11/02 11:23:28;;;;;;;6.65;2.60;;;15.90;96.60;;;;;;4997364;28;20113;-74
2022/11/02 11:25:58;;;;;;;8.20;2.50;;;15.90;96.40;;;;;;4997607;28;20546;-72
2022/11/02 11:28:51;;;;;;;13.35;3.13;;;16.00;96.30;;;;;;5010433;28;20036;-74
2022/11/02 11:31:18;;;;;;;5.13;2.30;;;16.10;96.00;;;;;;5003821;28;20116;-74
2022/11/02 11:33:51;;;;;;;6.53;1.88;;;16.10;95.80;;;;;;5004130;28;20026;-74
2022/11/02 11:36:27;;;;;;;5.13;2.20;;;16.10;95.70;;;;;;5005097;28;20072;-74
2022/11/02 11:38:57;;;;;;;5.28;2.15;;;16.20;95.60;;;;;;5005309;28;20057;-74
2022/11/02 11:41:24;;;;;;;6.10;2.20;;;16.20;95.60;;;;;;5007284;28;20061;-74
2022/11/02 11:43:51;;;;;;;5.35;2.35;;;16.30;95.60;;;;;;5003550;28;20712;-74
2022/11/02 11:46:18;;;;;;;5.80;2.67;;;16.30;95.60;;;;;;5004938;28;20125;-74
2022/11/02 11:48:52;;;;;;;9.65;3.05;;;16.40;95.40;;;;;;5006141;28;20107;-74
2022/11/02 11:51:26;;;;;;;6.03;2.13;;;16.50;95.40;;;;;;5007250;28;20529;-73
2022/11/02 11:54:16;;;;;;;7.40;2.40;;;16.50;95.20;;;;;;5007482;28;20045;-73
2022/11/02 11:56:43;;;;;;;5.55;2.17;;;16.60;95.10;;;;;;5003750;28;20396;-76
2022/11/02 11:59:20;;;;;;;11.70;2.40;;;16.60;95.10;;;;;;5004482;28;20031;-74
2022/11/02 12:01:46;;;;;;;7.38;2.88;;;16.60;94.90;;;;;;5005804;28;20480;-73
2022/11/02 12:04:12;;;;;;;9.98;2.50;;;16.60;94.80;;;;;;5004734;28;20045;-74
2022/11/02 12:06:49;;;;;;;6.15;2.47;;;16.70;94.80;;;;;;5006666;28;20021;-74
2022/11/02 12:09:48;;;;;;;7.28;3.00;;;16.70;94.60;;;;;;5003527;28;20045;-74
2022/11/02 12:13:07;;;;;;;8.50;2.35;;;16.70;94.50;;;;;;5005361;28;20030;-73
2022/11/02 12:15:38;;;;;;;6.07;2.35;;;16.70;94.60;;;;;;4993776;28;20089;-73
2022/11/02 12:18:22;;;;;;;7.70;2.13;;;16.70;94.40;;;;;;5004941;28;20096;-72
2022/11/02 12:21:04;;;;;;;9.05;2.42;;;16.80;94.40;;;;;;5005169;28;20113;-73
2022/11/02 12:23:52;;;;;;;6.35;2.60;;;16.80;94.30;;;;;;5002504;28;20022;-73
2022/11/02 12:26:23;;;;;;;7.50;2.45;;;16.80;94.30;;;;;;5004830;28;20033;-72
2022/11/02 12:29:30;;;;;;;5.38;1.80;;;16.80;94.30;;;;;;5020559;28;20460;-75
2022/11/02 12:32:03;;;;;;;7.88;2.35;;;16.80;94.20;;;;;;5002826;28;20045;-73
2022/11/02 12:34:50;;;;;;;4.25;1.95;;;16.80;94.00;;;;;;5005083;28;20512;-73
2022/11/02 12:37:28;;;;;;;5.20;2.22;;;16.80;94.00;;;;;;5005441;28;20101;-74
2022/11/02 12:40:20;;;;;;;7.28;2.42;;;16.80;93.80;;;;;;5003952;28;20057;-73
2022/11/02 12:43:04;;;;;;;5.93;1.77;;;16.90;93.50;;;;;;5017958;28;20061;-74
2022/11/02 12:45:30;;;;;;;6.57;1.90;;;16.90;93.30;;;;;;5014074;28;20064;-75
2022/11/02 12:48:02;;;;;;;6.03;1.90;;;16.90;93.00;;;;;;5007198;28;20065;-73
2022/11/02 12:50:53;;;;;;;3.40;1.70;;;17.00;92.60;;;;;;5004677;28;20026;-73
2022/11/02 12:53:41;;;;;;;4.65;2.08;;;17.00;92.30;;;;;;5006300;28;20023;-74
2022/11/02 12:56:15;;;;;;;5.45;2.15;;;17.00;92.20;;;;;;5007058;28;20113;-74
2022/11/02 12:58:41;;;;;;;5.20;2.53;;;17.00;91.70;;;;;;5007746;28;20048;-78
2022/11/02 13:01:26;;;;;;;10.88;2.00;;;17.00;91.40;;;;;;5007228;28;20058;-73
2022/11/02 13:04:17;;;;;;;4.70;1.60;;;16.90;91.40;;;;;;5002133;28;20084;-72
2022/11/02 13:06:45;;;;;;;7.10;1.90;;;16.90;90.90;;;;;;5005606;28;20083;-74
2022/11/02 13:09:11;;;;;;;4.32;2.10;;;16.80;91.00;;;;;;5002662;28;20178;-74
2022/11/02 13:11:46;;;;;;;7.10;2.00;;;16.80;90.80;;;;;;5005239;28;20471;-75
2022/11/02 13:14:18;;;;;;;2.95;2.00;;;16.80;90.70;;;;;;5003581;28;20048;-74
2022/11/02 13:16:53;;;;;;;5.18;1.85;;;16.90;90.50;;;;;;5003775;28;20101;-71
2022/11/02 13:19:24;;;;;;;7.68;2.42;;;16.80;90.00;;;;;;5006814;28;20029;-72